createdAt,value
2023-02-28T00:00:47.505Z,1.81
2023-02-28T00:05:49.272Z,1.84
2023-02-28T00:10:51.951Z,1.86
2023-02-28T00:16:01.947Z,1.79
2023-02-28T00:21:04.701Z,1.37
2023-02-28T00:26:06.429Z,0.66
2023-02-28T00:31:08.342Z,0.43
2023-02-28T00:36:13.001Z,0.86
2023-02-28T00:41:15.652Z,1.10
2023-02-28T00:46:18.473Z,1.17
2023-02-28T00:51:21.846Z,1.21
2023-02-28T00:56:23.598Z,1.24
2023-02-28T01:01:25.246Z,1.28
2023-02-28T01:06:27.119Z,1.26
2023-02-28T01:11:28.959Z,1.26
2023-02-28T01:16:31.157Z,1.32
2023-02-28T01:21:33.032Z,1.39
2023-02-28T01:26:34.856Z,1.52
2023-02-28T01:31:37.333Z,1.57
2023-02-28T01:36:39.212Z,1.61
2023-02-28T01:41:41.562Z,1.60
2023-02-28T01:46:43.754Z,1.65
2023-02-28T01:51:52.057Z,1.62
2023-02-28T01:56:59.950Z,1.59
2023-02-28T02:02:03.262Z,1.58
2023-02-28T02:07:05.328Z,1.57
2023-02-28T02:12:32.891Z,1.50
2023-02-28T02:17:45.536Z,1.47
2023-02-28T02:23:18.924Z,1.44
2023-02-28T02:29:03.143Z,1.35
2023-02-28T02:34:27.487Z,1.24
2023-02-28T02:39:45.624Z,1.10
2023-02-28T02:44:55.359Z,0.94
2023-02-28T02:50:05.683Z,0.81
2023-02-28T02:55:12.076Z,0.71
2023-02-28T03:00:17.788Z,0.61
2023-02-28T03:05:27.792Z,0.49
2023-02-28T03:10:40.635Z,0.46
2023-02-28T03:16:08.221Z,0.47
2023-02-28T03:21:25.318Z,0.40
2023-02-28T03:26:28.768Z,0.36
2023-02-28T03:31:45.387Z,0.34
2023-02-28T03:36:52.400Z,0.36
2023-02-28T03:42:02.023Z,0.26
2023-02-28T03:47:11.898Z,0.18
2023-02-28T03:52:13.649Z,0.09
2023-02-28T03:57:30.092Z,-0.03
2023-02-28T04:02:31.975Z,-0.10
2023-02-28T04:07:34.288Z,-0.15
2023-02-28T04:12:36.138Z,-0.22
2023-02-28T04:17:38.307Z,-0.23
2023-02-28T04:22:40.148Z,-0.25
2023-02-28T04:27:41.910Z,-0.25
2023-02-28T04:32:43.633Z,-0.27
2023-02-28T04:37:45.464Z,-0.27
2023-02-28T04:42:47.236Z,-0.31
2023-02-28T04:47:49.005Z,-0.35
2023-02-28T04:52:50.725Z,-0.37
2023-02-28T04:57:52.593Z,-0.43
2023-02-28T05:06:32.191Z,-0.51
2023-02-28T05:11:39.676Z,-0.54
2023-02-28T05:16:41.427Z,-0.58
2023-02-28T05:21:52.289Z,-0.62
2023-02-28T05:26:55.355Z,-0.66
2023-02-28T05:31:57.184Z,-0.69
2023-02-28T05:36:59.092Z,-0.71
2023-02-28T05:42:00.806Z,-0.71
2023-02-28T05:47:02.516Z,-0.71
2023-02-28T05:52:04.390Z,-0.68
2023-02-28T05:57:12.613Z,-0.65
2023-02-28T06:02:18.959Z,-0.58
2023-02-28T06:07:20.727Z,-0.53
2023-02-28T06:12:22.316Z,-0.46
2023-02-28T06:17:24.056Z,-0.35
2023-02-28T06:22:25.763Z,-0.23
2023-02-28T06:27:27.683Z,-0.12
2023-02-28T06:32:29.397Z,-0.03
2023-02-28T06:37:34.200Z,0.10
2023-02-28T06:42:35.896Z,0.30
2023-02-28T06:47:38.621Z,0.53
2023-02-28T06:52:40.484Z,0.65
2023-02-28T06:57:42.193Z,0.75
2023-02-28T07:02:44.137Z,0.88
2023-02-28T07:07:47.983Z,1.06
2023-02-28T07:12:49.795Z,1.26
2023-02-28T07:17:51.588Z,1.40
2023-02-28T07:22:58.934Z,1.58
2023-02-28T07:28:01.340Z,1.72
2023-02-28T07:33:03.073Z,1.81
2023-02-28T07:38:05.042Z,1.95
2023-02-28T07:43:06.792Z,2.14
2023-02-28T07:48:11.117Z,2.34
2023-02-28T07:53:12.901Z,2.33
2023-02-28T07:58:14.658Z,2.49
2023-02-28T08:03:16.844Z,2.85
2023-02-28T08:08:18.536Z,3.15
2023-02-28T08:13:20.193Z,3.23
2023-02-28T08:18:23.175Z,3.24
2023-02-28T08:23:24.847Z,3.49
2023-02-28T08:28:27.580Z,3.87
2023-02-28T08:33:29.459Z,4.40
2023-02-28T08:38:31.291Z,4.90
2023-02-28T08:43:32.985Z,5.09
2023-02-28T08:48:36.081Z,4.53
2023-02-28T08:53:40.205Z,4.49
2023-02-28T08:58:42.213Z,4.54
2023-02-28T09:03:45.299Z,5.27
2023-02-28T09:08:47.413Z,5.79
2023-02-28T09:13:49.108Z,5.89
2023-02-28T09:18:51.162Z,6.03
2023-02-28T09:23:53.209Z,6.15
2023-02-28T09:28:56.016Z,6.23
2023-02-28T09:33:58.887Z,6.14
2023-02-28T09:39:00.562Z,5.87
2023-02-28T09:44:05.259Z,5.57
2023-02-28T09:49:20.448Z,5.20
2023-02-28T09:54:25.004Z,5.07
2023-02-28T09:59:55.854Z,5.08
2023-02-28T10:05:09.782Z,5.17
2023-02-28T10:10:22.543Z,5.34
2023-02-28T10:15:27.700Z,5.55
2023-02-28T10:20:34.853Z,5.56
2023-02-28T10:25:39.396Z,6.31
2023-02-28T10:30:46.338Z,6.77
2023-02-28T10:35:48.132Z,7.28
2023-02-28T10:40:50.498Z,7.63
2023-02-28T10:46:10.463Z,7.95
2023-02-28T10:51:17.453Z,8.36
2023-02-28T10:56:22.960Z,8.62
2023-02-28T11:01:40.955Z,8.75
2023-02-28T11:06:42.994Z,8.59
2023-02-28T11:11:47.935Z,8.49
2023-02-28T11:16:51.180Z,7.65
2023-02-28T11:22:00.132Z,6.61
2023-02-28T11:27:02.725Z,6.05
2023-02-28T11:32:24.187Z,5.84
2023-02-28T11:37:28.289Z,5.55
2023-02-28T11:42:40.253Z,5.88
2023-02-28T11:47:49.219Z,6.17
2023-02-28T11:52:57.162Z,6.61
2023-02-28T11:58:17.814Z,6.39
2023-02-28T12:03:29.287Z,6.23
2023-02-28T12:08:49.400Z,6.20
2023-02-28T12:14:21.812Z,6.19
2023-02-28T12:19:34.705Z,6.11
2023-02-28T12:24:58.025Z,5.73
2023-02-28T12:30:26.941Z,5.51
2023-02-28T12:35:42.048Z,5.30
2023-02-28T12:40:49.903Z,5.41
2023-02-28T12:45:57.994Z,5.40
2023-02-28T12:51:01.770Z,5.29
2023-02-28T12:56:37.491Z,5.14
2023-02-28T13:01:48.801Z,5.37
2023-02-28T13:07:09.788Z,5.75
2023-02-28T13:12:16.602Z,6.35
2023-02-28T13:17:24.794Z,6.62
2023-02-28T13:22:26.535Z,6.90
2023-02-28T13:27:40.436Z,7.06
2023-02-28T13:32:42.273Z,6.86
2023-02-28T13:37:45.797Z,6.60
2023-02-28T13:42:50.655Z,6.39
2023-02-28T13:48:03.052Z,6.28
2023-02-28T13:53:18.324Z,6.28
2023-02-28T13:58:42.099Z,5.95
2023-02-28T14:03:59.013Z,6.16
2023-02-28T14:09:09.293Z,6.25
2023-02-28T14:14:36.939Z,6.14
2023-02-28T14:19:39.862Z,6.00
2023-02-28T14:25:19.384Z,6.12
2023-02-28T14:30:39.255Z,6.13
2023-02-28T14:35:54.884Z,6.12
2023-02-28T14:41:01.636Z,5.90
2023-02-28T14:46:07.386Z,5.62
2023-02-28T14:51:10.074Z,5.47
2023-02-28T14:56:37.853Z,5.58
2023-02-28T15:01:39.737Z,5.43
2023-02-28T15:06:42.605Z,5.31
2023-02-28T15:11:49.712Z,5.34
2023-02-28T15:17:01.141Z,5.14
2023-02-28T15:22:17.906Z,5.05
2023-02-28T15:27:31.024Z,5.01
2023-02-28T15:32:38.245Z,4.92
2023-02-28T15:37:47.414Z,4.74
2023-02-28T15:43:08.592Z,4.50
2023-02-28T15:48:24.158Z,4.39
2023-02-28T15:53:41.180Z,4.30
2023-02-28T15:58:43.601Z,4.12
2023-02-28T16:03:51.146Z,3.92
2023-02-28T16:08:54.109Z,3.71
2023-02-28T16:13:56.096Z,3.46
2023-02-28T16:18:58.026Z,3.20
2023-02-28T16:23:59.919Z,2.90
2023-02-28T16:29:03.112Z,2.60
2023-02-28T16:34:06.061Z,2.35
2023-02-28T16:39:07.779Z,2.12
2023-02-28T16:44:12.813Z,1.89
2023-02-28T16:49:15.141Z,1.70
2023-02-28T16:54:17.041Z,1.77
2023-02-28T16:59:20.862Z,2.38
2023-02-28T17:04:22.554Z,2.70
2023-02-28T17:09:30.801Z,2.79
2023-02-28T17:14:39.644Z,2.82
2023-02-28T17:19:44.041Z,2.62
2023-02-28T17:24:46.467Z,1.93
2023-02-28T17:29:49.039Z,1.47
2023-02-28T17:34:50.858Z,1.35
2023-02-28T17:39:52.636Z,1.80
2023-02-28T17:44:54.329Z,2.08
2023-02-28T17:49:55.955Z,2.24
2023-02-28T17:54:58.255Z,2.30
2023-02-28T17:59:59.958Z,2.33
2023-02-28T18:05:01.694Z,2.34
2023-02-28T18:10:04.287Z,2.34
2023-02-28T18:15:07.173Z,2.36
2023-02-28T18:20:11.516Z,2.33
2023-02-28T18:25:16.920Z,2.29
2023-02-28T18:30:19.270Z,2.29
2023-02-28T18:35:36.107Z,2.27
2023-02-28T18:40:38.544Z,2.18
2023-02-28T18:45:40.259Z,2.08
2023-02-28T18:50:42.282Z,1.98
2023-02-28T18:55:44.577Z,1.91
2023-02-28T19:00:47.720Z,1.85
2023-02-28T19:05:50.941Z,1.83
2023-02-28T19:10:52.965Z,1.77
2023-02-28T19:16:01.575Z,1.73
2023-02-28T19:21:03.869Z,1.76
2023-02-28T19:26:10.456Z,1.74
2023-02-28T19:31:17.667Z,1.71
2023-02-28T19:36:20.648Z,1.66
2023-02-28T19:41:22.838Z,1.59
2023-02-28T19:46:24.616Z,1.57
2023-02-28T19:51:28.853Z,1.49
2023-02-28T19:56:30.987Z,1.44
2023-02-28T20:01:33.074Z,1.40
2023-02-28T20:06:34.988Z,1.35
2023-02-28T20:11:37.188Z,1.31
2023-02-28T20:16:40.766Z,1.28
2023-02-28T20:21:44.011Z,1.23
2023-02-28T20:26:45.738Z,1.17
2023-02-28T20:31:47.536Z,1.13
2023-02-28T20:36:49.785Z,1.09
2023-02-28T20:41:51.500Z,1.07
2023-02-28T20:46:53.169Z,1.09
2023-02-28T20:51:54.832Z,1.10
2023-02-28T20:56:56.742Z,1.08
2023-02-28T21:01:58.436Z,1.06
2023-02-28T21:07:00.197Z,1.07
2023-02-28T21:12:01.814Z,1.32
2023-02-28T21:17:03.714Z,1.22
2023-02-28T21:22:05.507Z,1.11
2023-02-28T21:27:07.337Z,1.08
2023-02-28T21:32:09.151Z,1.03
2023-02-28T21:37:11.151Z,0.97
2023-02-28T21:42:13.095Z,0.92
2023-02-28T21:47:14.892Z,0.85
2023-02-28T21:52:21.831Z,0.74
2023-02-28T21:57:23.668Z,0.68
2023-02-28T22:02:25.881Z,0.66
2023-02-28T22:07:28.167Z,0.63
2023-02-28T22:12:30.824Z,0.60
2023-02-28T22:17:33.537Z,0.53
2023-02-28T22:22:35.472Z,0.50
2023-02-28T22:27:37.292Z,0.43
2023-02-28T22:32:41.235Z,0.39
2023-02-28T22:37:44.026Z,0.29
2023-02-28T22:42:46.731Z,0.25
2023-02-28T22:47:49.438Z,0.21
2023-02-28T22:52:52.930Z,0.29
2023-02-28T22:57:54.650Z,0.37
2023-02-28T23:02:56.434Z,0.41
2023-02-28T23:07:58.302Z,0.46
2023-02-28T23:13:00.842Z,0.47
2023-02-28T23:18:02.733Z,0.48
2023-02-28T23:23:04.905Z,0.50
2023-02-28T23:28:07.386Z,0.53
2023-02-28T23:33:14.133Z,0.51
2023-02-28T23:38:15.904Z,0.43
2023-02-28T23:43:17.615Z,0.39
2023-02-28T23:48:19.571Z,0.37
2023-02-28T23:53:21.386Z,0.34
2023-02-28T23:58:23.145Z,0.29
